sensor_id;sensor_type;location;lat;lon;timestamp;P1;durP1;ratioP1;P2;durP2;ratioP2
16189;SDS011;41754;51.498;7.540;2023-01-13T00:01:04;0.68;;;0.43;;
16189;SDS011;41754;51.498;7.540;2023-01-13T00:03:34;0.75;;;0.47;;
16189;SDS011;41754;51.498;7.540;2023-01-13T00:06:02;0.70;;;0.70;;
16189;SDS011;41754;51.498;7.540;2023-01-13T00:08:30;0.40;;;0.40;;
16189;SDS011;41754;51.498;7.540;2023-01-13T00:10:58;0.57;;;0.30;;
16189;SDS011;41754;51.498;7.540;2023-01-13T00:13:26;0.60;;;0.60;;
16189;SDS011;41754;51.498;7.540;2023-01-13T00:15:55;0.70;;;0.35;;
16189;SDS011;41754;51.498;7.540;2023-01-13T00:18:23;0.40;;;0.40;;
16189;SDS011;41754;51.498;7.540;2023-01-13T00:20:59;0.95;;;0.52;;
16189;SDS011;41754;51.498;7.540;2023-01-13T00:23:29;1.67;;;0.70;;
16189;SDS011;41754;51.498;7.540;2023-01-13T00:25:58;0.38;;;0.35;;
16189;SDS011;41754;51.498;7.540;2023-01-13T00:28:29;0.60;;;0.60;;
16189;SDS011;41754;51.498;7.540;2023-01-13T00:31:02;1.27;;;0.60;;
16189;SDS011;41754;51.498;7.540;2023-01-13T00:33:31;0.60;;;0.40;;
16189;SDS011;41754;51.498;7.540;2023-01-13T00:36:01;0.53;;;0.50;;
16189;SDS011;41754;51.498;7.540;2023-01-13T00:38:30;1.23;;;0.40;;
16189;SDS011;41754;51.498;7.540;2023-01-13T00:40:59;1.10;;;0.30;;
16189;SDS011;41754;51.498;7.540;2023-01-13T00:43:29;1.65;;;0.43;;
16189;SDS011;41754;51.498;7.540;2023-01-13T00:45:57;0.40;;;0.40;;
16189;SDS011;41754;51.498;7.540;2023-01-13T00:48:26;2.30;;;0.50;;
16189;SDS011;41754;51.498;7.540;2023-01-13T00:50:54;0.45;;;0.40;;
16189;SDS011;41754;51.498;7.540;2023-01-13T00:53:24;0.90;;;0.40;;
16189;SDS011;41754;51.498;7.540;2023-01-13T00:55:59;0.80;;;0.33;;
16189;SDS011;41754;51.498;7.540;2023-01-13T00:58:29;2.43;;;0.50;;
16189;SDS011;41754;51.498;7.540;2023-01-13T01:00:58;0.50;;;0.37;;
16189;SDS011;41754;51.498;7.540;2023-01-13T01:03:27;1.52;;;0.40;;
16189;SDS011;41754;51.498;7.540;2023-01-13T01:05:55;0.30;;;0.30;;
16189;SDS011;41754;51.498;7.540;2023-01-13T01:08:25;0.88;;;0.52;;
16189;SDS011;41754;51.498;7.540;2023-01-13T01:10:59;2.80;;;0.40;;
16189;SDS011;41754;51.498;7.540;2023-01-13T01:13:27;2.10;;;0.70;;
16189;SDS011;41754;51.498;7.540;2023-01-13T01:15:55;3.17;;;0.80;;
16189;SDS011;41754;51.498;7.540;2023-01-13T01:18:23;1.90;;;0.95;;
16189;SDS011;41754;51.498;7.540;2023-01-13T01:20:51;2.53;;;0.77;;
16189;SDS011;41754;51.498;7.540;2023-01-13T01:23:19;6.60;;;1.10;;
16189;SDS011;41754;51.498;7.540;2023-01-13T01:25:48;5.00;;;0.93;;
16189;SDS011;41754;51.498;7.540;2023-01-13T01:28:16;3.90;;;1.20;;
16189;SDS011;41754;51.498;7.540;2023-01-13T01:30:45;4.67;;;1.20;;
16189;SDS011;41754;51.498;7.540;2023-01-13T01:33:13;2.07;;;0.90;;
16189;SDS011;41754;51.498;7.540;2023-01-13T01:35:42;10.77;;;1.93;;
16189;SDS011;41754;51.498;7.540;2023-01-13T01:38:09;5.97;;;1.13;;
16189;SDS011;41754;51.498;7.540;2023-01-13T01:40:37;7.47;;;1.33;;
16189;SDS011;41754;51.498;7.540;2023-01-13T01:43:09;3.03;;;1.10;;
16189;SDS011;41754;51.498;7.540;2023-01-13T01:45:58;4.30;;;1.27;;
16189;SDS011;41754;51.498;7.540;2023-01-13T01:48:26;6.00;;;1.40;;
16189;SDS011;41754;51.498;7.540;2023-01-13T01:50:55;6.53;;;1.67;;
16189;SDS011;41754;51.498;7.540;2023-01-13T01:53:23;6.00;;;1.53;;
16189;SDS011;41754;51.498;7.540;2023-01-13T01:55:55;6.23;;;1.63;;
16189;SDS011;41754;51.498;7.540;2023-01-13T01:58:27;8.37;;;1.80;;
16189;SDS011;41754;51.498;7.540;2023-01-13T02:00:57;5.87;;;1.37;;
16189;SDS011;41754;51.498;7.540;2023-01-13T02:03:25;9.00;;;1.97;;
16189;SDS011;41754;51.498;7.540;2023-01-13T02:05:53;8.13;;;1.47;;
16189;SDS011;41754;51.498;7.540;2023-01-13T02:08:21;6.33;;;2.00;;
16189;SDS011;41754;51.498;7.540;2023-01-13T02:10:52;8.30;;;2.20;;
16189;SDS011;41754;51.498;7.540;2023-01-13T02:13:20;7.70;;;2.07;;
16189;SDS011;41754;51.498;7.540;2023-01-13T02:15:51;9.00;;;1.83;;
16189;SDS011;41754;51.498;7.540;2023-01-13T02:18:28;6.63;;;1.63;;
16189;SDS011;41754;51.498;7.540;2023-01-13T02:21:11;3.67;;;1.30;;
16189;SDS011;41754;51.498;7.540;2023-01-13T02:24:17;9.60;;;1.87;;
16189;SDS011;41754;51.498;7.540;2023-01-13T02:27:35;10.17;;;2.23;;
16189;SDS011;41754;51.498;7.540;2023-01-13T02:30:17;8.10;;;1.67;;
16189;SDS011;41754;51.498;7.540;2023-01-13T02:33:13;7.93;;;1.70;;
16189;SDS011;41754;51.498;7.540;2023-01-13T02:35:49;9.00;;;1.83;;
16189;SDS011;41754;51.498;7.540;2023-01-13T02:38:24;6.90;;;1.63;;
16189;SDS011;41754;51.498;7.540;2023-01-13T02:40:59;5.40;;;1.60;;
16189;SDS011;41754;51.498;7.540;2023-01-13T02:43:51;7.70;;;2.00;;
16189;SDS011;41754;51.498;7.540;2023-01-13T02:46:35;12.90;;;2.17;;
16189;SDS011;41754;51.498;7.540;2023-01-13T02:49:09;6.70;;;1.50;;
16189;SDS011;41754;51.498;7.540;2023-01-13T02:51:40;10.93;;;1.90;;
16189;SDS011;41754;51.498;7.540;2023-01-13T02:54:12;7.63;;;1.57;;
16189;SDS011;41754;51.498;7.540;2023-01-13T02:56:45;6.57;;;1.70;;
16189;SDS011;41754;51.498;7.540;2023-01-13T02:59:16;7.43;;;1.97;;
16189;SDS011;41754;51.498;7.540;2023-01-13T03:01:47;7.60;;;1.80;;
16189;SDS011;41754;51.498;7.540;2023-01-13T03:07:14;7.23;;;1.80;;
16189;SDS011;41754;51.498;7.540;2023-01-13T03:10:06;5.27;;;1.53;;
16189;SDS011;41754;51.498;7.540;2023-01-13T03:12:43;7.30;;;1.57;;
16189;SDS011;41754;51.498;7.540;2023-01-13T03:15:22;4.83;;;1.23;;
16189;SDS011;41754;51.498;7.540;2023-01-13T03:17:59;4.17;;;1.27;;
16189;SDS011;41754;51.498;7.540;2023-01-13T03:20:37;3.90;;;1.30;;
16189;SDS011;41754;51.498;7.540;2023-01-13T03:23:14;5.07;;;1.80;;
16189;SDS011;41754;51.498;7.540;2023-01-13T03:25:48;5.00;;;1.40;;
16189;SDS011;41754;51.498;7.540;2023-01-13T03:28:22;5.03;;;1.17;;
16189;SDS011;41754;51.498;7.540;2023-01-13T03:30:56;3.07;;;1.00;;
16189;SDS011;41754;51.498;7.540;2023-01-13T03:33:30;5.43;;;1.23;;
16189;SDS011;41754;51.498;7.540;2023-01-13T03:36:03;3.90;;;1.37;;
16189;SDS011;41754;51.498;7.540;2023-01-13T03:38:36;5.67;;;1.53;;
16189;SDS011;41754;51.498;7.540;2023-01-13T03:41:08;5.03;;;1.33;;
16189;SDS011;41754;51.498;7.540;2023-01-13T03:43:40;5.63;;;1.37;;
16189;SDS011;41754;51.498;7.540;2023-01-13T03:46:30;7.90;;;1.67;;
16189;SDS011;41754;51.498;7.540;2023-01-13T03:49:04;9.50;;;2.03;;
16189;SDS011;41754;51.498;7.540;2023-01-13T03:51:36;11.83;;;2.23;;
16189;SDS011;41754;51.498;7.540;2023-01-13T03:54:08;7.07;;;1.70;;
16189;SDS011;41754;51.498;7.540;2023-01-13T03:56:38;7.73;;;1.70;;
16189;SDS011;41754;51.498;7.540;2023-01-13T03:59:12;7.03;;;1.97;;
16189;SDS011;41754;51.498;7.540;2023-01-13T04:01:45;8.00;;;2.17;;
16189;SDS011;41754;51.498;7.540;2023-01-13T04:04:21;11.17;;;2.90;;
16189;SDS011;41754;51.498;7.540;2023-01-13T04:06:56;9.97;;;2.47;;
16189;SDS011;41754;51.498;7.540;2023-01-13T04:09:29;8.43;;;2.27;;
16189;SDS011;41754;51.498;7.540;2023-01-13T04:12:09;8.30;;;2.00;;
16189;SDS011;41754;51.498;7.540;2023-01-13T04:14:42;11.20;;;2.77;;
16189;SDS011;41754;51.498;7.540;2023-01-13T04:17:11;8.63;;;1.93;;
16189;SDS011;41754;51.498;7.540;2023-01-13T04:19:41;14.80;;;2.40;;
16189;SDS011;41754;51.498;7.540;2023-01-13T04:22:08;8.87;;;2.07;;
16189;SDS011;41754;51.498;7.540;2023-01-13T04:24:36;4.93;;;1.53;;
16189;SDS011;41754;51.498;7.540;2023-01-13T04:27:04;10.63;;;2.27;;
16189;SDS011;41754;51.498;7.540;2023-01-13T04:29:32;6.57;;;2.30;;
16189;SDS011;41754;51.498;7.540;2023-01-13T04:32:00;7.30;;;1.60;;
16189;SDS011;41754;51.498;7.540;2023-01-13T04:34:28;7.07;;;1.83;;
16189;SDS011;41754;51.498;7.540;2023-01-13T04:36:57;6.97;;;1.77;;
16189;SDS011;41754;51.498;7.540;2023-01-13T04:39:25;6.83;;;2.00;;
16189;SDS011;41754;51.498;7.540;2023-01-13T04:41:52;5.90;;;1.80;;
16189;SDS011;41754;51.498;7.540;2023-01-13T04:44:27;7.73;;;1.70;;
16189;SDS011;41754;51.498;7.540;2023-01-13T04:46:57;9.73;;;2.27;;
16189;SDS011;41754;51.498;7.540;2023-01-13T04:49:24;8.27;;;2.17;;
16189;SDS011;41754;51.498;7.540;2023-01-13T04:51:52;6.33;;;1.50;;
16189;SDS011;41754;51.498;7.540;2023-01-13T04:54:21;7.33;;;2.33;;
16189;SDS011;41754;51.498;7.540;2023-01-13T04:56:49;6.53;;;1.60;;
16189;SDS011;41754;51.498;7.540;2023-01-13T04:59:17;9.60;;;1.97;;
16189;SDS011;41754;51.498;7.540;2023-01-13T05:01:45;7.87;;;1.90;;
16189;SDS011;41754;51.498;7.540;2023-01-13T05:04:13;9.60;;;2.30;;
16189;SDS011;41754;51.498;7.540;2023-01-13T05:06:42;5.50;;;2.00;;
16189;SDS011;41754;51.498;7.540;2023-01-13T05:09:10;8.77;;;2.17;;
16189;SDS011;41754;51.498;7.540;2023-01-13T05:11:42;6.87;;;2.07;;
16189;SDS011;41754;51.498;7.540;2023-01-13T05:14:27;9.93;;;2.13;;
16189;SDS011;41754;51.498;7.540;2023-01-13T05:17:14;12.53;;;2.17;;
16189;SDS011;41754;51.498;7.540;2023-01-13T05:19:46;11.60;;;2.57;;
16189;SDS011;41754;51.498;7.540;2023-01-13T05:22:14;11.43;;;2.70;;
16189;SDS011;41754;51.498;7.540;2023-01-13T05:24:59;10.83;;;2.40;;
16189;SDS011;41754;51.498;7.540;2023-01-13T05:27:46;9.53;;;2.20;;
16189;SDS011;41754;51.498;7.540;2023-01-13T05:30:15;10.17;;;2.33;;
16189;SDS011;41754;51.498;7.540;2023-01-13T05:32:43;10.57;;;2.53;;
16189;SDS011;41754;51.498;7.540;2023-01-13T05:35:11;9.93;;;3.13;;
16189;SDS011;41754;51.498;7.540;2023-01-13T05:37:41;13.03;;;2.80;;
16189;SDS011;41754;51.498;7.540;2023-01-13T05:40:09;9.23;;;2.63;;
16189;SDS011;41754;51.498;7.540;2023-01-13T05:43:00;8.77;;;2.30;;
16189;SDS011;41754;51.498;7.540;2023-01-13T05:45:48;11.47;;;2.93;;
16189;SDS011;41754;51.498;7.540;2023-01-13T05:48:18;9.40;;;2.30;;
16189;SDS011;41754;51.498;7.540;2023-01-13T05:50:47;11.27;;;2.87;;
16189;SDS011;41754;51.498;7.540;2023-01-13T05:53:15;9.87;;;2.70;;
16189;SDS011;41754;51.498;7.540;2023-01-13T05:55:44;12.30;;;2.47;;
16189;SDS011;41754;51.498;7.540;2023-01-13T05:58:14;9.93;;;2.27;;
16189;SDS011;41754;51.498;7.540;2023-01-13T06:00:43;8.00;;;2.20;;
16189;SDS011;41754;51.498;7.540;2023-01-13T06:03:12;5.97;;;2.00;;
16189;SDS011;41754;51.498;7.540;2023-01-13T06:05:41;8.93;;;2.03;;
16189;SDS011;41754;51.498;7.540;2023-01-13T06:08:10;9.27;;;2.17;;
16189;SDS011;41754;51.498;7.540;2023-01-13T06:10:38;8.40;;;2.37;;
16189;SDS011;41754;51.498;7.540;2023-01-13T06:13:06;8.33;;;2.23;;
16189;SDS011;41754;51.498;7.540;2023-01-13T06:15:35;6.10;;;2.07;;
16189;SDS011;41754;51.498;7.540;2023-01-13T06:18:03;9.17;;;2.67;;
16189;SDS011;41754;51.498;7.540;2023-01-13T06:20:32;10.07;;;2.10;;
16189;SDS011;41754;51.498;7.540;2023-01-13T06:23:00;9.93;;;2.27;;
16189;SDS011;41754;51.498;7.540;2023-01-13T06:25:29;12.13;;;2.73;;
16189;SDS011;41754;51.498;7.540;2023-01-13T06:28:04;9.10;;;2.50;;
16189;SDS011;41754;51.498;7.540;2023-01-13T06:30:33;10.97;;;2.87;;
16189;SDS011;41754;51.498;7.540;2023-01-13T06:33:05;17.03;;;2.83;;
16189;SDS011;41754;51.498;7.540;2023-01-13T06:35:38;13.87;;;2.60;;
16189;SDS011;41754;51.498;7.540;2023-01-13T06:38:10;11.67;;;2.70;;
16189;SDS011;41754;51.498;7.540;2023-01-13T06:40:42;9.60;;;2.30;;
16189;SDS011;41754;51.498;7.540;2023-01-13T06:43:10;7.23;;;2.57;;
16189;SDS011;41754;51.498;7.540;2023-01-13T06:45:45;10.27;;;2.10;;
16189;SDS011;41754;51.498;7.540;2023-01-13T06:48:17;10.80;;;2.43;;
16189;SDS011;41754;51.498;7.540;2023-01-13T06:50:46;9.20;;;2.73;;
16189;SDS011;41754;51.498;7.540;2023-01-13T06:53:14;6.10;;;2.10;;
16189;SDS011;41754;51.498;7.540;2023-01-13T06:55:42;8.13;;;2.40;;
16189;SDS011;41754;51.498;7.540;2023-01-13T06:58:10;6.63;;;1.90;;
16189;SDS011;41754;51.498;7.540;2023-01-13T07:00:38;9.43;;;2.60;;
16189;SDS011;41754;51.498;7.540;2023-01-13T07:03:08;8.00;;;2.10;;
16189;SDS011;41754;51.498;7.540;2023-01-13T07:05:37;6.50;;;1.97;;
16189;SDS011;41754;51.498;7.540;2023-01-13T07:08:06;7.33;;;2.00;;
16189;SDS011;41754;51.498;7.540;2023-01-13T07:10:34;10.03;;;2.67;;
16189;SDS011;41754;51.498;7.540;2023-01-13T07:13:03;11.57;;;2.20;;
16189;SDS011;41754;51.498;7.540;2023-01-13T07:15:53;9.43;;;2.63;;
16189;SDS011;41754;51.498;7.540;2023-01-13T07:18:24;13.90;;;3.17;;
16189;SDS011;41754;51.498;7.540;2023-01-13T07:20:53;7.93;;;2.27;;
16189;SDS011;41754;51.498;7.540;2023-01-13T07:23:22;11.03;;;2.20;;
16189;SDS011;41754;51.498;7.540;2023-01-13T07:25:53;8.03;;;2.33;;
16189;SDS011;41754;51.498;7.540;2023-01-13T07:28:21;10.93;;;2.10;;
16189;SDS011;41754;51.498;7.540;2023-01-13T07:30:49;10.03;;;2.10;;
16189;SDS011;41754;51.498;7.540;2023-01-13T07:33:17;11.37;;;2.80;;
16189;SDS011;41754;51.498;7.540;2023-01-13T07:35:47;10.87;;;2.37;;
16189;SDS011;41754;51.498;7.540;2023-01-13T07:38:15;13.07;;;2.77;;
16189;SDS011;41754;51.498;7.540;2023-01-13T07:40:43;8.43;;;2.50;;
16189;SDS011;41754;51.498;7.540;2023-01-13T07:43:11;11.77;;;2.27;;
16189;SDS011;41754;51.498;7.540;2023-01-13T07:45:57;6.17;;;2.10;;
16189;SDS011;41754;51.498;7.540;2023-01-13T07:48:26;7.47;;;2.17;;
16189;SDS011;41754;51.498;7.540;2023-01-13T07:50:55;6.53;;;1.77;;
16189;SDS011;41754;51.498;7.540;2023-01-13T07:53:27;6.60;;;1.60;;
16189;SDS011;41754;51.498;7.540;2023-01-13T07:55:55;7.97;;;1.87;;
16189;SDS011;41754;51.498;7.540;2023-01-13T07:58:24;6.00;;;2.10;;
16189;SDS011;41754;51.498;7.540;2023-01-13T08:00:52;5.23;;;1.93;;
16189;SDS011;41754;51.498;7.540;2023-01-13T08:03:21;8.97;;;2.20;;
16189;SDS011;41754;51.498;7.540;2023-01-13T08:05:49;8.50;;;2.43;;
16189;SDS011;41754;51.498;7.540;2023-01-13T08:08:18;9.40;;;2.70;;
16189;SDS011;41754;51.498;7.540;2023-01-13T08:10:46;7.17;;;1.93;;
16189;SDS011;41754;51.498;7.540;2023-01-13T08:13:15;12.13;;;2.30;;
16189;SDS011;41754;51.498;7.540;2023-01-13T08:15:46;6.20;;;1.77;;
16189;SDS011;41754;51.498;7.540;2023-01-13T08:18:15;8.10;;;1.90;;
16189;SDS011;41754;51.498;7.540;2023-01-13T08:20:46;7.67;;;1.90;;
16189;SDS011;41754;51.498;7.540;2023-01-13T08:23:15;7.60;;;1.60;;
16189;SDS011;41754;51.498;7.540;2023-01-13T08:25:44;6.50;;;1.77;;
16189;SDS011;41754;51.498;7.540;2023-01-13T08:28:13;8.63;;;1.97;;
16189;SDS011;41754;51.498;7.540;2023-01-13T08:30:42;7.63;;;1.83;;
16189;SDS011;41754;51.498;7.540;2023-01-13T08:33:11;8.83;;;2.00;;
16189;SDS011;41754;51.498;7.540;2023-01-13T08:35:40;7.13;;;2.10;;
16189;SDS011;41754;51.498;7.540;2023-01-13T08:38:08;9.57;;;2.20;;
16189;SDS011;41754;51.498;7.540;2023-01-13T08:40:37;8.93;;;1.93;;
16189;SDS011;41754;51.498;7.540;2023-01-13T08:43:07;12.53;;;2.37;;
16189;SDS011;41754;51.498;7.540;2023-01-13T08:45:34;10.70;;;1.90;;
16189;SDS011;41754;51.498;7.540;2023-01-13T08:48:02;8.50;;;2.13;;
16189;SDS011;41754;51.498;7.540;2023-01-13T08:50:31;11.67;;;2.83;;
16189;SDS011;41754;51.498;7.540;2023-01-13T08:52:59;7.63;;;2.30;;
16189;SDS011;41754;51.498;7.540;2023-01-13T08:55:27;7.17;;;1.80;;
16189;SDS011;41754;51.498;7.540;2023-01-13T08:57:54;11.20;;;2.37;;
16189;SDS011;41754;51.498;7.540;2023-01-13T09:00:42;9.63;;;1.97;;
16189;SDS011;41754;51.498;7.540;2023-01-13T09:03:10;11.20;;;2.43;;
16189;SDS011;41754;51.498;7.540;2023-01-13T09:05:38;9.27;;;2.50;;
16189;SDS011;41754;51.498;7.540;2023-01-13T09:08:06;8.73;;;1.77;;
16189;SDS011;41754;51.498;7.540;2023-01-13T09:10:34;6.47;;;2.10;;
16189;SDS011;41754;51.498;7.540;2023-01-13T09:13:02;8.93;;;2.20;;
16189;SDS011;41754;51.498;7.540;2023-01-13T09:15:38;7.90;;;1.93;;
16189;SDS011;41754;51.498;7.540;2023-01-13T09:18:09;6.23;;;2.13;;
16189;SDS011;41754;51.498;7.540;2023-01-13T09:20:37;5.00;;;1.73;;
16189;SDS011;41754;51.498;7.540;2023-01-13T09:23:05;8.27;;;2.00;;
16189;SDS011;41754;51.498;7.540;2023-01-13T09:25:36;8.27;;;2.10;;
16189;SDS011;41754;51.498;7.540;2023-01-13T09:28:04;9.77;;;2.07;;
16189;SDS011;41754;51.498;7.540;2023-01-13T09:30:34;9.40;;;2.03;;
16189;SDS011;41754;51.498;7.540;2023-01-13T09:33:03;9.97;;;2.30;;
16189;SDS011;41754;51.498;7.540;2023-01-13T09:35:49;8.13;;;1.93;;
16189;SDS011;41754;51.498;7.540;2023-01-13T09:38:17;10.30;;;2.03;;
16189;SDS011;41754;51.498;7.540;2023-01-13T09:40:45;8.80;;;2.43;;
16189;SDS011;41754;51.498;7.540;2023-01-13T09:43:16;10.33;;;2.73;;
16189;SDS011;41754;51.498;7.540;2023-01-13T09:46:06;10.27;;;2.83;;
16189;SDS011;41754;51.498;7.540;2023-01-13T09:49:01;9.80;;;2.37;;
16189;SDS011;41754;51.498;7.540;2023-01-13T09:51:32;11.03;;;2.50;;
16189;SDS011;41754;51.498;7.540;2023-01-13T09:54:09;12.00;;;2.90;;
16189;SDS011;41754;51.498;7.540;2023-01-13T09:56:42;11.87;;;2.40;;
16189;SDS011;41754;51.498;7.540;2023-01-13T09:59:10;9.00;;;2.27;;
16189;SDS011;41754;51.498;7.540;2023-01-13T10:01:41;9.90;;;2.63;;
16189;SDS011;41754;51.498;7.540;2023-01-13T10:04:17;9.83;;;2.47;;
16189;SDS011;41754;51.498;7.540;2023-01-13T10:06:48;12.37;;;2.90;;
16189;SDS011;41754;51.498;7.540;2023-01-13T10:09:22;11.53;;;2.73;;
16189;SDS011;41754;51.498;7.540;2023-01-13T10:11:56;12.17;;;2.80;;
16189;SDS011;41754;51.498;7.540;2023-01-13T10:14:44;13.40;;;3.20;;
16189;SDS011;41754;51.498;7.540;2023-01-13T10:17:19;12.97;;;2.97;;
16189;SDS011;41754;51.498;7.540;2023-01-13T10:19:56;15.17;;;3.07;;
16189;SDS011;41754;51.498;7.540;2023-01-13T10:22:36;14.23;;;2.80;;
16189;SDS011;41754;51.498;7.540;2023-01-13T10:25:22;12.93;;;3.07;;
16189;SDS011;41754;51.498;7.540;2023-01-13T10:28:00;16.40;;;3.00;;
16189;SDS011;41754;51.498;7.540;2023-01-13T10:30:35;13.20;;;3.13;;
16189;SDS011;41754;51.498;7.540;2023-01-13T10:33:08;14.90;;;2.90;;
16189;SDS011;41754;51.498;7.540;2023-01-13T10:35:49;16.73;;;2.93;;
16189;SDS011;41754;51.498;7.540;2023-01-13T10:38:24;12.87;;;3.53;;
16189;SDS011;41754;51.498;7.540;2023-01-13T10:40:55;18.20;;;3.33;;
16189;SDS011;41754;51.498;7.540;2023-01-13T10:43:24;17.27;;;4.17;;
16189;SDS011;41754;51.498;7.540;2023-01-13T10:45:57;18.07;;;3.67;;
16189;SDS011;41754;51.498;7.540;2023-01-13T10:48:34;15.37;;;3.07;;
16189;SDS011;41754;51.498;7.540;2023-01-13T10:51:17;13.47;;;2.83;;
16189;SDS011;41754;51.498;7.540;2023-01-13T10:53:53;14.17;;;3.30;;
16189;SDS011;41754;51.498;7.540;2023-01-13T10:56:24;13.80;;;3.63;;
16189;SDS011;41754;51.498;7.540;2023-01-13T10:59:06;14.30;;;2.97;;
16189;SDS011;41754;51.498;7.540;2023-01-13T11:01:39;14.33;;;3.70;;
16189;SDS011;41754;51.498;7.540;2023-01-13T11:04:20;17.70;;;3.47;;
16189;SDS011;41754;51.498;7.540;2023-01-13T11:06:55;14.03;;;3.40;;
16189;SDS011;41754;51.498;7.540;2023-01-13T11:09:25;13.07;;;3.10;;
16189;SDS011;41754;51.498;7.540;2023-01-13T11:11:56;14.93;;;4.03;;
16189;SDS011;41754;51.498;7.540;2023-01-13T11:14:27;12.50;;;3.10;;
16189;SDS011;41754;51.498;7.540;2023-01-13T11:17:19;13.87;;;3.30;;
16189;SDS011;41754;51.498;7.540;2023-01-13T11:19:57;10.75;;;3.13;;
16189;SDS011;41754;51.498;7.540;2023-01-13T11:22:31;14.20;;;2.97;;
16189;SDS011;41754;51.498;7.540;2023-01-13T11:25:07;15.95;;;3.40;;
16189;SDS011;41754;51.498;7.540;2023-01-13T11:27:39;11.15;;;2.40;;
16189;SDS011;41754;51.498;7.540;2023-01-13T11:30:13;12.05;;;3.05;;
16189;SDS011;41754;51.498;7.540;2023-01-13T11:32:52;10.65;;;2.85;;
16189;SDS011;41754;51.498;7.540;2023-01-13T11:35:30;16.10;;;3.08;;
16189;SDS011;41754;51.498;7.540;2023-01-13T11:38:03;15.23;;;3.33;;
16189;SDS011;41754;51.498;7.540;2023-01-13T11:40:41;10.18;;;2.97;;
16189;SDS011;41754;51.498;7.540;2023-01-13T11:43:15;10.65;;;2.47;;
16189;SDS011;41754;51.498;7.540;2023-01-13T11:45:48;12.57;;;2.70;;
16189;SDS011;41754;51.498;7.540;2023-01-13T11:48:19;27.05;;;3.63;;
16189;SDS011;41754;51.498;7.540;2023-01-13T11:50:53;14.30;;;2.55;;
16189;SDS011;41754;51.498;7.540;2023-01-13T11:53:30;7.87;;;2.70;;
16189;SDS011;41754;51.498;7.540;2023-01-13T11:56:20;7.33;;;1.63;;
16189;SDS011;41754;51.498;7.540;2023-01-13T11:59:03;13.07;;;2.63;;
16189;SDS011;41754;51.498;7.540;2023-01-13T12:01:48;12.20;;;2.97;;
16189;SDS011;41754;51.498;7.540;2023-01-13T12:04:27;16.00;;;3.47;;
16189;SDS011;41754;51.498;7.540;2023-01-13T12:07:05;15.67;;;3.40;;
16189;SDS011;41754;51.498;7.540;2023-01-13T12:09:46;13.27;;;3.33;;
16189;SDS011;41754;51.498;7.540;2023-01-13T12:12:28;12.97;;;3.73;;
16189;SDS011;41754;51.498;7.540;2023-01-13T12:15:19;12.77;;;3.37;;
16189;SDS011;41754;51.498;7.540;2023-01-13T12:17:59;17.53;;;3.67;;
16189;SDS011;41754;51.498;7.540;2023-01-13T12:20:39;16.63;;;3.77;;
16189;SDS011;41754;51.498;7.540;2023-01-13T12:23:16;12.00;;;3.47;;
16189;SDS011;41754;51.498;7.540;2023-01-13T12:26:00;15.13;;;3.50;;
16189;SDS011;41754;51.498;7.540;2023-01-13T12:28:38;15.50;;;3.60;;
16189;SDS011;41754;51.498;7.540;2023-01-13T12:31:11;16.10;;;3.90;;
16189;SDS011;41754;51.498;7.540;2023-01-13T12:33:45;12.53;;;3.70;;
16189;SDS011;41754;51.498;7.540;2023-01-13T12:36:22;13.03;;;3.43;;
16189;SDS011;41754;51.498;7.540;2023-01-13T12:38:55;18.53;;;5.03;;
16189;SDS011;41754;51.498;7.540;2023-01-13T12:41:30;14.27;;;3.50;;
16189;SDS011;41754;51.498;7.540;2023-01-13T12:44:27;17.13;;;3.33;;
16189;SDS011;41754;51.498;7.540;2023-01-13T12:46:54;12.60;;;3.33;;
16189;SDS011;41754;51.498;7.540;2023-01-13T12:49:26;15.63;;;3.37;;
16189;SDS011;41754;51.498;7.540;2023-01-13T12:57:55;14.57;;;3.50;;
16189;SDS011;41754;51.498;7.540;2023-01-13T13:00:52;13.00;;;3.87;;
16189;SDS011;41754;51.498;7.540;2023-01-13T13:03:31;12.00;;;3.40;;
16189;SDS011;41754;51.498;7.540;2023-01-13T13:06:12;11.77;;;3.30;;
16189;SDS011;41754;51.498;7.540;2023-01-13T13:08:44;17.63;;;3.53;;
16189;SDS011;41754;51.498;7.540;2023-01-13T13:11:21;13.97;;;3.13;;
16189;SDS011;41754;51.498;7.540;2023-01-13T13:23:25;7.17;;;2.40;;
16189;SDS011;41754;51.498;7.540;2023-01-13T13:26:10;6.87;;;2.40;;
16189;SDS011;41754;51.498;7.540;2023-01-13T13:28:47;7.07;;;2.35;;
16189;SDS011;41754;51.498;7.540;2023-01-13T13:31:29;6.78;;;2.00;;
16189;SDS011;41754;51.498;7.540;2023-01-13T13:34:12;9.50;;;2.53;;
16189;SDS011;41754;51.498;7.540;2023-01-13T13:39:46;7.60;;;2.08;;
16189;SDS011;41754;51.498;7.540;2023-01-13T13:42:34;7.30;;;2.40;;
16189;SDS011;41754;51.498;7.540;2023-01-13T13:45:25;6.00;;;1.88;;
16189;SDS011;41754;51.498;7.540;2023-01-13T13:48:26;8.73;;;2.40;;
16189;SDS011;41754;51.498;7.540;2023-01-13T13:50:58;8.80;;;2.47;;
16189;SDS011;41754;51.498;7.540;2023-01-13T13:53:29;8.57;;;2.30;;
16189;SDS011;41754;51.498;7.540;2023-01-13T13:56:02;9.10;;;2.10;;
16189;SDS011;41754;51.498;7.540;2023-01-13T13:58:33;10.87;;;2.90;;
16189;SDS011;41754;51.498;7.540;2023-01-13T14:01:02;13.60;;;3.73;;
16189;SDS011;41754;51.498;7.540;2023-01-13T14:03:33;9.63;;;2.37;;
16189;SDS011;41754;51.498;7.540;2023-01-13T14:06:15;14.23;;;2.70;;
16189;SDS011;41754;51.498;7.540;2023-01-13T14:08:49;11.63;;;3.27;;
16189;SDS011;41754;51.498;7.540;2023-01-13T14:11:22;7.63;;;2.47;;
16189;SDS011;41754;51.498;7.540;2023-01-13T14:14:02;14.00;;;3.20;;
16189;SDS011;41754;51.498;7.540;2023-01-13T14:16:31;9.77;;;2.83;;
16189;SDS011;41754;51.498;7.540;2023-01-13T14:19:01;11.77;;;2.90;;
16189;SDS011;41754;51.498;7.540;2023-01-13T14:21:30;12.60;;;3.03;;
16189;SDS011;41754;51.498;7.540;2023-01-13T14:23:59;15.10;;;3.53;;
16189;SDS011;41754;51.498;7.540;2023-01-13T14:26:36;11.27;;;3.00;;
16189;SDS011;41754;51.498;7.540;2023-01-13T14:29:04;15.07;;;3.43;;
16189;SDS011;41754;51.498;7.540;2023-01-13T14:31:32;10.47;;;2.93;;
16189;SDS011;41754;51.498;7.540;2023-01-13T14:34:01;15.73;;;3.43;;
16189;SDS011;41754;51.498;7.540;2023-01-13T14:36:54;13.77;;;3.17;;
16189;SDS011;41754;51.498;7.540;2023-01-13T14:39:23;10.43;;;2.97;;
16189;SDS011;41754;51.498;7.540;2023-01-13T14:41:59;11.30;;;2.90;;
16189;SDS011;41754;51.498;7.540;2023-01-13T14:44:27;10.50;;;2.80;;
16189;SDS011;41754;51.498;7.540;2023-01-13T14:46:58;11.57;;;2.60;;
16189;SDS011;41754;51.498;7.540;2023-01-13T14:49:29;11.27;;;2.53;;
16189;SDS011;41754;51.498;7.540;2023-01-13T14:52:03;9.60;;;2.93;;
16189;SDS011;41754;51.498;7.540;2023-01-13T14:54:47;9.27;;;2.53;;
16189;SDS011;41754;51.498;7.540;2023-01-13T14:57:22;11.50;;;3.00;;
16189;SDS011;41754;51.498;7.540;2023-01-13T15:00:04;12.23;;;3.13;;
16189;SDS011;41754;51.498;7.540;2023-01-13T15:02:44;12.90;;;3.63;;
16189;SDS011;41754;51.498;7.540;2023-01-13T15:08:27;14.63;;;3.57;;
16189;SDS011;41754;51.498;7.540;2023-01-13T15:11:03;9.50;;;3.37;;
16189;SDS011;41754;51.498;7.540;2023-01-13T15:13:37;15.43;;;3.53;;
16189;SDS011;41754;51.498;7.540;2023-01-13T15:16:19;10.37;;;3.30;;
16189;SDS011;41754;51.498;7.540;2023-01-13T15:18:50;11.27;;;2.80;;
16189;SDS011;41754;51.498;7.540;2023-01-13T15:21:18;9.80;;;2.87;;
16189;SDS011;41754;51.498;7.540;2023-01-13T15:23:47;12.10;;;3.70;;
16189;SDS011;41754;51.498;7.540;2023-01-13T15:26:18;11.80;;;2.97;;
16189;SDS011;41754;51.498;7.540;2023-01-13T15:28:47;9.47;;;3.10;;
16189;SDS011;41754;51.498;7.540;2023-01-13T15:31:16;11.87;;;3.10;;
16189;SDS011;41754;51.498;7.540;2023-01-13T15:33:45;10.23;;;3.03;;
16189;SDS011;41754;51.498;7.540;2023-01-13T15:36:18;13.10;;;3.50;;
16189;SDS011;41754;51.498;7.540;2023-01-13T15:38:50;11.37;;;3.63;;
16189;SDS011;41754;51.498;7.540;2023-01-13T15:41:18;9.60;;;3.43;;
16189;SDS011;41754;51.498;7.540;2023-01-13T15:44:08;13.40;;;3.47;;